| time (UTC) | temp F | wind direction | speed MPH | gust MPH | rain 1hr in | rain 24hr in | rain mn in | humidity % | barometer mb |
| 20260507071333 | 52 | 71 | 0.0 | 2.0 | 0.00 | 0.27 | 0.00 | 82 | 1008.9 |
| 20260507070835 | 51 | 71 | 2.0 | 3.0 | 0.00 | 0.27 | 0.00 | 83 | 1008.9 |
| 20260507070332 | 51 | 71 | 1.0 | 3.0 | 0.00 | 0.27 | 0.00 | 83 | 1008.9 |
| 20260507070116 | 51 | 71 | 2.0 | 2.0 | 0.00 | 0.27 | 0.00 | 83 | 1008.8 |
| 20260507065331 | 50 | 71 | 0.0 | 3.0 | 0.00 | 0.28 | 0.00 | 84 | 1008.8 |
| 20260507065114 | 50 | 71 | 1.0 | 3.0 | 0.00 | 0.28 | 0.00 | 84 | 1008.7 |
| 20260507064335 | 49 | 71 | 2.0 | 3.0 | 0.00 | 0.29 | 0.00 | 85 | 1008.7 |
| 20260507063834 | 49 | 71 | 2.0 | 3.0 | 0.00 | 0.30 | 0.00 | 86 | 1008.6 |
| 20260507063333 | 48 | 71 | 0.0 | 2.0 | 0.00 | 0.30 | 0.00 | 87 | 1008.7 |
| 20260507062830 | 48 | 71 | 1.0 | 2.0 | 0.00 | 0.31 | 0.00 | 87 | 1008.7 |
| 20260507062330 | 47 | 71 | 1.0 | 3.0 | 0.00 | 0.31 | 0.00 | 87 | 1008.8 |
| 20260507061827 | 47 | 71 | 2.0 | 4.0 | 0.00 | 0.33 | 0.00 | 87 | 1008.8 |
| 20260507061617 | 47 | 71 | 2.0 | 4.0 | 0.00 | 0.34 | 0.00 | 87 | 1008.7 |
| 20260507060825 | 47 | 16 | 2.0 | 3.0 | 0.00 | 0.34 | 0.00 | 87 | 1008.8 |
| 20260507060327 | 47 | 14 | 2.0 | 3.0 | 0.00 | 0.35 | 0.00 | 88 | 1008.6 |
| 20260507055823 | 47 | 14 | 2.0 | 3.0 | 0.00 | 0.35 | 0.00 | 87 | 1008.6 |
| 20260507055322 | 47 | 14 | 2.0 | 3.0 | 0.00 | 0.35 | 0.00 | 86 | 1008.6 |
| 20260507054824 | 47 | 14 | 0.0 | 2.0 | 0.00 | 0.35 | 0.00 | 86 | 1008.5 |
| 20260507054321 | 47 | 14 | 0.0 | 2.0 | 0.00 | 0.35 | 0.00 | 85 | 1008.5 |
| 20260507053821 | 47 | 14 | 1.0 | 3.0 | 0.00 | 0.35 | 0.00 | 85 | 1008.5 |
| 20260507053322 | 47 | 14 | 2.0 | 5.0 | 0.00 | 0.35 | 0.00 | 84 | 1008.3 |
| 20260507052822 | 47 | 14 | 3.0 | 5.0 | 0.00 | 0.35 | 0.00 | 85 | 1008.3 |
| 20260507052325 | 47 | 18 | 4.0 | 5.0 | 0.00 | 0.35 | 0.00 | 85 | 1008.3 |
| 20260507051822 | 46 | 0 | 3.0 | 4.0 | 0.00 | 0.35 | 0.00 | 86 | 1008.2 |
| 20260507051318 | 46 | 0 | 2.0 | 2.0 | 0.00 | 0.35 | 0.00 | 86 | 1008.3 |
| 20260507050818 | 46 | 0 | 1.0 | 2.0 | 0.00 | 0.35 | 0.00 | 86 | 1008.4 |
| 20260507050318 | 47 | 0 | 2.0 | 3.0 | 0.00 | 0.35 | 0.00 | 86 | 1008.4 |
| 20260507045816 | 47 | 0 | 2.0 | 3.0 | 0.00 | 0.35 | 0.00 | 86 | 1008.4 |
| 20260507045315 | 47 | 0 | 2.0 | 2.0 | 0.00 | 0.35 | 0.00 | 86 | 1008.3 |
| 20260507044816 | 47 | 0 | 0.0 | 4.0 | 0.00 | 0.35 | 0.00 | 85 | 1008.4 |
| 20260507044313 | 47 | 0 | 2.0 | 4.0 | 0.00 | 0.35 | 0.00 | 85 | 1008.2 |
| 20260507043814 | 47 | 0 | 3.0 | 4.0 | 0.00 | 0.35 | 0.00 | 86 | 1008.2 |
| 20260507043559 | 47 | 75 | 2.0 | 4.0 | 0.00 | 0.35 | 0.00 | 86 | 1007.8 |
| 20260507042811 | 47 | 78 | 1.0 | 2.0 | 0.00 | 0.35 | 0.00 | 86 | 1007.8 |
| 20260507042312 | 47 | 78 | 1.0 | 2.0 | 0.00 | 0.35 | 0.00 | 86 | 1007.9 |
| 20260507041811 | 47 | 78 | 1.0 | 3.0 | 0.00 | 0.35 | 0.00 | 86 | 1007.7 |
| 20260507041601 | 47 | 78 | 2.0 | 3.0 | 0.00 | 0.35 | 0.00 | 86 | 1007.8 |
| 20260507040809 | 47 | 78 | 2.0 | 3.0 | 0.00 | 0.35 | 0.00 | 86 | 1007.8 |
| 20260507040306 | 47 | 78 | 0.0 | 2.0 | 0.00 | 0.35 | 0.00 | 86 | 1007.8 |
| 20260507035815 | 47 | 78 | 0.0 | 3.0 | 0.00 | 0.35 | 0.00 | 86 | 1007.8 |
| 20260507035309 | 47 | 78 | 1.0 | 3.0 | 0.00 | 0.35 | 0.00 | 86 | 1007.8 |
| 20260507034808 | 47 | 78 | 0.0 | 4.0 | 0.00 | 0.35 | 0.00 | 86 | 1007.8 |
| 20260507034309 | 47 | 78 | 2.0 | 4.0 | 0.00 | 0.35 | 0.00 | 86 | 1007.7 |
| 20260507033808 | 47 | 326 | 0.0 | 5.0 | 0.00 | 0.35 | 0.00 | 85 | 1007.8 |
| 20260507033309 | 47 | 321 | 2.0 | 7.0 | 0.00 | 0.35 | 0.00 | 85 | 1007.7 |
| 20260507032803 | 47 | 350 | 5.0 | 7.0 | 0.00 | 0.35 | 0.00 | 85 | 1007.6 |
| 20260507032559 | 46 | 357 | 0.0 | 2.0 | 0.00 | 0.35 | 0.00 | 85 | 1007.5 |
| 20260507031806 | 46 | 357 | 1.0 | 3.0 | 0.00 | 0.35 | 0.00 | 85 | 1007.4 |
| 20260507031557 | 46 | 358 | 2.0 | 3.0 | 0.00 | 0.35 | 0.00 | 86 | 1007.4 |
| 20260507030805 | 46 | 350 | 2.0 | 3.0 | 0.00 | 0.35 | 0.00 | 85 | 1007.5 |
| 20260507030305 | 46 | 350 | 1.0 | 3.0 | 0.00 | 0.35 | 0.00 | 85 | 1007.6 |
| 20260507025802 | 46 | 350 | 2.0 | 4.0 | 0.00 | 0.35 | 0.00 | 84 | 1007.6 |
| 20260507025306 | 47 | 337 | 2.0 | 5.0 | 0.00 | 0.35 | 0.00 | 84 | 1007.7 |
| 20260507024803 | 47 | 333 | 3.0 | 5.0 | 0.00 | 0.35 | 0.00 | 83 | 1007.6 |
| 20260507024306 | 47 | 47 | 0.0 | 4.0 | 0.00 | 0.35 | 0.00 | 83 | 1007.6 |
| 20260507023805 | 46 | 42 | 2.0 | 4.0 | 0.00 | 0.35 | 0.00 | 84 | 1007.5 |
| 20260507023559 | 46 | 44 | 1.0 | 4.0 | 0.00 | 0.35 | 0.00 | 85 | 1007.5 |
| 20260507022757 | 46 | 44 | 2.0 | 4.0 | 0.00 | 0.35 | 0.00 | 85 | 1007.6 |
| 20260507022256 | 47 | 44 | 2.0 | 4.0 | 0.00 | 0.35 | 0.00 | 86 | 1007.6 |
| 20260507021800 | 46 | 44 | 2.0 | 4.0 | 0.00 | 0.35 | 0.00 | 86 | 1007.6 |
| 20260507021547 | 46 | 18 | 2.0 | 3.0 | 0.00 | 0.35 | 0.00 | 86 | 1007.7 |
| 20260507020754 | 46 | 7 | 2.0 | 5.0 | 0.00 | 0.35 | 0.00 | 86 | 1007.8 |
| 20260507020245 | 46 | 7 | 1.0 | 5.0 | 0.00 | 0.35 | 0.00 | 86 | 1007.8 |
| 20260507015738 | 46 | 28 | 0.0 | 4.0 | 0.00 | 0.35 | 0.00 | 85 | 1007.7 |
| 20260507015239 | 47 | 28 | 2.0 | 4.0 | 0.00 | 0.35 | 0.00 | 85 | 1007.6 |
| 20260507014737 | 47 | 28 | 2.0 | 3.0 | 0.00 | 0.35 | 0.00 | 85 | 1007.5 |
| 20260507014233 | 47 | 28 | 2.0 | 3.0 | 0.00 | 0.35 | 0.00 | 84 | 1007.5 |
| 20260507013732 | 47 | 28 | 2.0 | 3.0 | 0.00 | 0.35 | 0.00 | 84 | 1007.5 |
| 20260507013232 | 47 | 16 | 0.0 | 0.0 | 0.00 | 0.35 | 0.00 | 84 | 1007.5 |
| 20260507013023 | 48 | 355 | 0.0 | 3.0 | 0.00 | 0.35 | 0.00 | 84 | 1007.6 |
| 20260507012312 | 48 | 354 | 1.0 | 5.0 | 0.00 | 0.35 | 0.00 | 84 | 1007.7 |
| 20260507012253 | 48 | 354 | 0.0 | 4.0 | 0.00 | 0.35 | 0.00 | 84 | 1007.7 |
| 20260507011232 | 49 | 337 | 3.0 | 6.0 | 0.00 | 0.35 | 0.00 | 82 | 1007.7 |
| 20260507010731 | 49 | 353 | 5.0 | 6.0 | 0.00 | 0.35 | 0.00 | 80 | 1007.7 |
| 20260507010230 | 49 | 37 | 3.0 | 5.0 | 0.00 | 0.35 | 0.00 | 78 | 1007.5 |
| 20260507005703 | 48 | 69 | 3.0 | 6.0 | 0.00 | 0.35 | 0.00 | 80 | 1007.5 |
| 20260507005203 | 48 | 49 | 4.0 | 6.0 | 0.00 | 0.35 | 0.00 | 83 | 1007.5 |
| 20260507004702 | 47 | 49 | 0.0 | 3.0 | 0.00 | 0.35 | 0.00 | 84 | 1007.6 |
| 20260507004201 | 48 | 49 | 0.0 | 4.0 | 0.00 | 0.35 | 0.00 | 84 | 1007.5 |
| 20260507003702 | 47 | 49 | 3.0 | 4.0 | 0.00 | 0.35 | 0.00 | 86 | 1007.5 |
| 20260507003201 | 47 | 47 | 3.0 | 4.0 | 0.00 | 0.35 | 0.00 | 86 | 1007.6 |
| 20260507002702 | 47 | 47 | 2.0 | 4.0 | 0.00 | 0.35 | 0.00 | 86 | 1007.7 |
| 20260507002204 | 47 | 35 | 2.0 | 4.0 | 0.00 | 0.35 | 0.00 | 86 | 1007.6 |
| 20260507001705 | 47 | 35 | 0.0 | 3.0 | 0.00 | 0.35 | 0.00 | 85 | 1007.6 |
| 20260507001210 | 47 | 35 | 1.0 | 3.0 | 0.00 | 0.35 | 0.00 | 85 | 1007.6 |
| 20260507000704 | 47 | 35 | 2.0 | 3.0 | 0.00 | 0.35 | 0.00 | 84 | 1007.5 |
| 20260507000205 | 47 | 35 | 2.0 | 4.0 | 0.00 | 0.35 | 0.00 | 84 | 1007.5 |
| 20260506235700 | 47 | 44 | 2.0 | 4.0 | 0.00 | 0.35 | 0.00 | 83 | 1007.6 |
| 20260506235201 | 48 | 44 | 2.0 | 4.0 | 0.00 | 0.35 | 0.00 | 83 | 1007.5 |
| 20260506234949 | 47 | 21 | 3.0 | 4.0 | 0.00 | 0.35 | 0.00 | 83 | 1007.5 |
| 20260506234453 | 48 | 192 | 1.0 | 4.0 | 0.00 | 0.35 | 0.00 | 82 | 1007.4 |
| 20260506233701 | 49 | 190 | 1.0 | 6.0 | 0.00 | 0.35 | 0.00 | 81 | 1007.3 |
| 20260506233159 | 49 | 42 | 5.0 | 6.0 | 0.00 | 0.35 | 0.00 | 81 | 1007.3 |
| 20260506232704 | 48 | 38 | 4.0 | 5.0 | 0.00 | 0.35 | 0.00 | 84 | 1007.4 |
| 20260506232202 | 48 | 34 | 2.0 | 4.0 | 0.00 | 0.35 | 0.00 | 84 | 1007.4 |
| 20260506231702 | 48 | 34 | 3.0 | 4.0 | 0.00 | 0.35 | 0.00 | 84 | 1007.5 |
| 20260506231202 | 48 | 34 | 0.0 | 3.0 | 0.00 | 0.35 | 0.00 | 84 | 1007.5 |
| 20260506230702 | 48 | 34 | 2.0 | 3.0 | 0.00 | 0.35 | 0.00 | 84 | 1007.6 |
| 20260506230202 | 48 | 21 | 3.0 | 3.0 | 0.00 | 0.35 | 0.00 | 84 | 1007.6 |
| 20260506225702 | 49 | 21 | 2.0 | 3.0 | 0.00 | 0.35 | 0.00 | 84 | 1007.6 |
| 20260506225204 | 49 | 21 | 2.0 | 3.0 | 0.00 | 0.35 | 0.00 | 83 | 1007.6 |
| 20260506224701 | 49 | 21 | 1.0 | 5.0 | 0.00 | 0.35 | 0.00 | 82 | 1007.7 |
| 20260506224159 | 49 | 21 | 4.0 | 6.0 | 0.00 | 0.35 | 0.00 | 82 | 1007.5 |
| 20260506223659 | 50 | 10 | 3.0 | 7.0 | 0.00 | 0.35 | 0.00 | 80 | 1007.4 |
| 20260506223158 | 52 | 0 | 3.0 | 10.0 | 0.00 | 0.35 | 0.00 | 75 | 1007.4 |
| 20260506222659 | 52 | 75 | 5.0 | 11.0 | 0.00 | 0.35 | 0.00 | 76 | 1007.4 |
| 20260506222158 | 51 | 24 | 6.0 | 12.0 | 0.00 | 0.35 | 0.00 | 76 | 1007.3 |
| 20260506221942 | 51 | 59 | 7.0 | 12.0 | 0.00 | 0.35 | 0.00 | 78 | 1007.4 |
| 20260506221204 | 50 | 72 | 6.0 | 10.0 | 0.00 | 0.35 | 0.00 | 81 | 1007.4 |
| 20260506220700 | 49 | 76 | 3.0 | 4.0 | 0.00 | 0.35 | 0.00 | 84 | 1007.5 |
| 20260506220200 | 49 | 56 | 3.0 | 5.0 | 0.00 | 0.35 | 0.00 | 84 | 1007.5 |
| 20260506215945 | 49 | 134 | 2.0 | 5.0 | 0.00 | 0.35 | 0.35 | 83 | 1007.6 |
| 20260506215200 | 49 | 58 | 4.0 | 5.0 | 0.00 | 0.35 | 0.35 | 84 | 1007.5 |
| 20260506214701 | 49 | 80 | 3.0 | 4.0 | 0.00 | 0.35 | 0.35 | 84 | 1007.5 |
| 20260506214201 | 49 | 58 | 2.0 | 4.0 | 0.00 | 0.35 | 0.35 | 84 | 1007.5 |
| 20260506213700 | 49 | 58 | 2.0 | 3.0 | 0.00 | 0.35 | 0.35 | 84 | 1007.5 |
| 20260506213444 | 50 | 59 | 0.0 | 2.0 | 0.00 | 0.35 | 0.35 | 84 | 1007.5 |
| 20260506212700 | 50 | 59 | 1.0 | 3.0 | 0.00 | 0.35 | 0.35 | 84 | 1007.5 |
| 20260506212200 | 50 | 59 | 0.0 | 4.0 | 0.00 | 0.35 | 0.35 | 84 | 1007.5 |
| 20260506211700 | 50 | 59 | 2.0 | 7.0 | 0.00 | 0.35 | 0.35 | 84 | 1007.5 |
| 20260506211200 | 50 | 14 | 5.0 | 7.0 | 0.00 | 0.35 | 0.35 | 83 | 1007.6 |
| 20260506211010 | 50 | 0 | 4.0 | 5.0 | 0.00 | 0.35 | 0.35 | 81 | 1007.5 |
| 20260506210444 | 51 | 154 | 1.0 | 7.0 | 0.00 | 0.35 | 0.35 | 79 | 1007.4 |
| 20260506205700 | 51 | 155 | 1.0 | 7.0 | 0.00 | 0.35 | 0.35 | 78 | 1007.3 |
| 20260506205159 | 51 | 58 | 4.0 | 6.0 | 0.00 | 0.35 | 0.35 | 80 | 1007.2 |
| 20260506204659 | 50 | 69 | 3.0 | 4.0 | 0.00 | 0.35 | 0.35 | 82 | 1007.2 |
| 20260506204157 | 50 | 82 | 0.0 | 4.0 | 0.00 | 0.35 | 0.35 | 83 | 1007.2 |
| 20260506203658 | 50 | 82 | 2.0 | 4.0 | 0.00 | 0.35 | 0.35 | 82 | 1007.1 |
| 20260506203150 | 50 | 82 | 2.0 | 5.0 | 0.00 | 0.35 | 0.35 | 82 | 1007.3 |
| 20260506202651 | 50 | 83 | 2.0 | 5.0 | 0.00 | 0.35 | 0.35 | 82 | 1007.3 |
| 20260506202152 | 50 | 21 | 3.0 | 4.0 | 0.00 | 0.35 | 0.35 | 82 | 1007.1 |
| 20260506201648 | 50 | 23 | 0.0 | 4.0 | 0.00 | 0.35 | 0.35 | 82 | 1007.1 |
| 20260506201153 | 50 | 147 | 0.0 | 3.0 | 0.00 | 0.35 | 0.35 | 82 | 1007.1 |
| 20260506200649 | 51 | 141 | 0.0 | 5.0 | 0.00 | 0.35 | 0.35 | 81 | 1007.0 |
| 20260506200146 | 51 | 102 | 2.0 | 5.0 | 0.00 | 0.35 | 0.35 | 80 | 1006.8 |
| 20260506195651 | 51 | 89 | 3.0 | 7.0 | 0.00 | 0.35 | 0.35 | 81 | 1006.8 |
| 20260506195149 | 51 | 135 | 3.0 | 9.0 | 0.00 | 0.35 | 0.35 | 81 | 1006.8 |
| 20260506194647 | 52 | 63 | 2.0 | 9.0 | 0.00 | 0.35 | 0.35 | 79 | 1006.6 |
| 20260506194149 | 51 | 55 | 5.0 | 7.0 | 0.00 | 0.35 | 0.35 | 83 | 1006.6 |
| 20260506193645 | 51 | 69 | 2.0 | 5.0 | 0.00 | 0.35 | 0.35 | 85 | 1006.6 |
| 20260506193144 | 51 | 76 | 4.0 | 6.0 | 0.01 | 0.35 | 0.35 | 84 | 1006.6 |
| 20260506192644 | 51 | 76 | 2.0 | 6.0 | 0.01 | 0.35 | 0.35 | 83 | 1006.5 |
| 20260506192142 | 52 | 76 | 4.0 | 6.0 | 0.01 | 0.35 | 0.35 | 82 | 1006.5 |
| 20260506191640 | 52 | 25 | 4.0 | 5.0 | 0.01 | 0.35 | 0.35 | 81 | 1006.6 |
| 20260506191141 | 53 | 0 | 2.0 | 7.0 | 0.01 | 0.35 | 0.35 | 80 | 1006.5 |
| 20260506190644 | 53 | 97 | 1.0 | 11.0 | 0.01 | 0.35 | 0.35 | 77 | 1005.9 |
| 20260506190532 | 53 | 79 | 6.0 | 11.0 | 0.01 | 0.35 | 0.35 | 77 | 1005.9 |
| 20260506185639 | 52 | 76 | 7.0 | 10.0 | 0.01 | 0.35 | 0.35 | 80 | 1006.0 |
| 20260506185144 | 52 | 71 | 3.0 | 6.0 | 0.01 | 0.35 | 0.35 | 82 | 1005.9 |
| 20260506184639 | 53 | 59 | 1.0 | 7.0 | 0.01 | 0.35 | 0.35 | 81 | 1005.9 |
| 20260506184138 | 53 | 72 | 6.0 | 9.0 | 0.01 | 0.35 | 0.35 | 79 | 1005.8 |
| 20260506183637 | 53 | 79 | 6.0 | 9.0 | 0.01 | 0.35 | 0.35 | 79 | 1005.7 |
| 20260506183423 | 54 | 89 | 5.0 | 7.0 | 0.00 | 0.35 | 0.34 | 80 | 1005.8 |
| 20260506182637 | 53 | 96 | 3.0 | 6.0 | 0.00 | 0.35 | 0.34 | 79 | 1005.7 |
| 20260506182208 | 53 | 117 | 1.0 | 5.0 | 0.00 | 0.35 | 0.34 | 82 | 1005.6 |
| 20260506182152 | 53 | 96 | 4.0 | 6.0 | 0.00 | 0.35 | 0.34 | 80 | 1005.6 |
| 20260506181134 | 53 | 117 | 4.0 | 5.0 | 0.00 | 0.35 | 0.34 | 84 | 1005.6 |
| 20260506180638 | 53 | 142 | 3.0 | 5.0 | 0.00 | 0.35 | 0.34 | 84 | 1005.6 |
| 20260506180130 | 53 | 154 | 2.0 | 2.0 | 0.00 | 0.35 | 0.34 | 85 | 1005.5 |
| 20260506175632 | 54 | 154 | 0.0 | 3.0 | 0.00 | 0.35 | 0.34 | 84 | 1005.5 |
| 20260506175130 | 54 | 154 | 1.0 | 4.0 | 0.00 | 0.35 | 0.34 | 84 | 1005.5 |
| 20260506174635 | 54 | 159 | 0.0 | 4.0 | 0.00 | 0.35 | 0.34 | 84 | 1005.4 |
| 20260506174129 | 54 | 124 | 1.0 | 4.0 | 0.00 | 0.35 | 0.34 | 81 | 1005.4 |
| 20260506173630 | 55 | 124 | 3.0 | 4.0 | 0.00 | 0.35 | 0.34 | 83 | 1005.4 |
| 20260506173412 | 55 | 124 | 2.0 | 4.0 | 0.00 | 0.35 | 0.34 | 82 | 1005.4 |
| 20260506172629 | 55 | 114 | 2.0 | 3.0 | 0.00 | 0.35 | 0.34 | 82 | 1005.4 |
| 20260506172127 | 55 | 114 | 1.0 | 3.0 | 0.00 | 0.35 | 0.34 | 82 | 1005.3 |
| 20260506171628 | 55 | 111 | 0.0 | 4.0 | 0.00 | 0.35 | 0.34 | 81 | 1005.0 |
| 20260506171152 | 56 | 182 | 2.0 | 4.0 | 0.00 | 0.35 | 0.34 | 80 | 1005.1 |
| 20260506171146 | 55 | 111 | 3.0 | 4.0 | 0.00 | 0.35 | 0.34 | 81 | 1005.0 |
| 20260506170122 | 56 | 182 | 2.0 | 4.0 | 0.00 | 0.35 | 0.34 | 79 | 1005.1 |
| 20260506165903 | 56 | 190 | 3.0 | 4.0 | 0.00 | 0.35 | 0.34 | 79 | 1005.1 |
| 20260506165123 | 56 | 235 | 0.0 | 3.0 | 0.00 | 0.35 | 0.34 | 77 | 1005.1 |
| 20260506164625 | 56 | 235 | 0.0 | 5.0 | 0.00 | 0.35 | 0.34 | 80 | 1005.1 |
| 20260506164432 | 56 | 237 | 0.0 | 4.0 | 0.00 | 0.35 | 0.34 | 83 | 1004.9 |
| 20260506164427 | 56 | 235 | 3.0 | 5.0 | 0.00 | 0.35 | 0.34 | 81 | 1005.0 |
| 20260506163120 | 55 | 237 | 3.0 | 4.0 | 0.00 | 0.35 | 0.34 | 83 | 1005.0 |
| 20260506162618 | 55 | 240 | 1.0 | 4.0 | 0.00 | 0.35 | 0.34 | 83 | 1004.9 |
| 20260506162120 | 55 | 224 | 2.0 | 4.0 | 0.00 | 0.35 | 0.34 | 83 | 1004.9 |
| 20260506161616 | 55 | 224 | 2.0 | 3.0 | 0.00 | 0.35 | 0.34 | 82 | 1004.9 |
| 20260506161341 | 55 | 224 | 1.0 | 4.0 | 0.00 | 0.35 | 0.34 | 82 | 1005.0 |
| 20260506160621 | 55 | 224 | 2.0 | 4.0 | 0.00 | 0.35 | 0.34 | 83 | 1005.1 |
| 20260506160118 | 56 | 230 | 0.0 | 2.0 | 0.00 | 0.35 | 0.34 | 82 | 1004.9 |
| 20260506155618 | 55 | 230 | 0.0 | 3.0 | 0.00 | 0.35 | 0.34 | 82 | 1005.1 |
| 20260506155115 | 55 | 230 | 0.0 | 4.0 | 0.00 | 0.35 | 0.34 | 81 | 1005.0 |
| 20260506154613 | 56 | 228 | 3.0 | 4.0 | 0.00 | 0.35 | 0.34 | 81 | 1005.0 |
| 20260506154112 | 56 | 217 | 1.0 | 3.0 | 0.00 | 0.35 | 0.34 | 83 | 1005.0 |
| 20260506153614 | 55 | 217 | 0.0 | 2.0 | 0.00 | 0.35 | 0.34 | 83 | 1005.0 |
| 20260506153111 | 55 | 217 | 0.0 | 2.0 | 0.00 | 0.35 | 0.34 | 85 | 1004.9 |
| 20260506152850 | 55 | 217 | 0.0 | 2.0 | 0.00 | 0.35 | 0.34 | 84 | 1005.1 |
| 20260506152115 | 54 | 217 | 0.0 | 2.0 | 0.00 | 0.35 | 0.34 | 80 | 1005.1 |
| 20260506151608 | 54 | 217 | 0.0 | 4.0 | 0.00 | 0.35 | 0.34 | 84 | 1005.2 |
| 20260506151344 | 54 | 217 | 0.0 | 4.0 | 0.00 | 0.35 | 0.34 | 86 | 1005.2 |
| 20260506150840 | 54 | 217 | 1.0 | 4.0 | 0.00 | 0.35 | 0.34 | 83 | 1005.2 |
| 20260506150346 | 54 | 224 | 0.0 | 5.0 | 0.00 | 0.35 | 0.34 | 82 | 1005.3 |
| 20260506145607 | 54 | 265 | 3.0 | 5.0 | 0.00 | 0.35 | 0.34 | 84 | 1005.4 |
| 20260506145108 | 54 | 282 | 2.0 | 5.0 | 0.00 | 0.35 | 0.34 | 85 | 1005.4 |
| 20260506144607 | 54 | 268 | 3.0 | 5.0 | 0.00 | 0.35 | 0.34 | 84 | 1005.4 |
| 20260506144114 | 54 | 274 | 1.0 | 5.0 | 0.00 | 0.35 | 0.34 | 87 | 1005.5 |
| 20260506143606 | 54 | 305 | 2.0 | 4.0 | 0.00 | 0.35 | 0.34 | 86 | 1005.5 |
| 20260506143104 | 53 | 334 | 2.0 | 3.0 | 0.01 | 0.35 | 0.34 | 85 | 1005.5 |
| 20260506142843 | 53 | 338 | 0.0 | 2.0 | 0.02 | 0.35 | 0.34 | 82 | 1005.6 |
| 20260506142103 | 53 | 331 | 1.0 | 3.0 | 0.02 | 0.35 | 0.34 | 85 | 1005.6 |
| 20260506141603 | 53 | 331 | 2.0 | 3.0 | 0.02 | 0.35 | 0.34 | 86 | 1005.8 |
| 20260506141103 | 52 | 336 | 2.0 | 4.0 | 0.02 | 0.35 | 0.34 | 86 | 1005.8 |
| 20260506140603 | 52 | 337 | 2.0 | 4.0 | 0.03 | 0.35 | 0.34 | 85 | 1005.8 |
| 20260506140104 | 52 | 223 | 2.0 | 4.0 | 0.04 | 0.35 | 0.34 | 83 | 1005.8 |
| 20260506135602 | 52 | 83 | 2.0 | 10.0 | 0.05 | 0.31 | 0.34 | 83 | 1005.8 |
| 20260506135102 | 52 | 49 | 4.0 | 10.0 | 0.06 | 0.31 | 0.34 | 79 | 1006.0 |
| 20260506134604 | 51 | 82 | 6.0 | 14.0 | 0.06 | 0.31 | 0.34 | 79 | 1006.1 |
| 20260506134102 | 51 | 113 | 7.0 | 15.0 | 0.07 | 0.31 | 0.34 | 79 | 1006.2 |
| 20260506133603 | 51 | 82 | 9.0 | 15.0 | 0.09 | 0.31 | 0.34 | 79 | 1006.2 |
| 20260506133102 | 52 | 86 | 9.0 | 19.0 | 0.14 | 0.31 | 0.33 | 77 | 1006.6 |
| 20260506132608 | 52 | 97 | 8.0 | 19.0 | 0.20 | 0.31 | 0.32 | 76 | 1006.7 |
| 20260506132104 | 53 | 99 | 4.0 | 19.0 | 0.23 | 0.31 | 0.32 | 76 | 1006.6 |
| 20260506131609 | 52 | 128 | 11.0 | 19.0 | 0.24 | 0.31 | 0.32 | 75 | 1006.7 |
| 20260506131103 | 52 | 71 | 10.0 | 18.0 | 0.24 | 0.31 | 0.31 | 79 | 1006.6 |
| 20260506130839 | 52 | 90 | 10.0 | 18.0 | 0.23 | 0.31 | 0.31 | 79 | 1006.8 |
| 20260506130551 | 52 | 87 | 10.0 | 18.0 | 0.22 | 0.31 | 0.30 | 78 | 1006.7 |
| 20260506125603 | 52 | 104 | 10.0 | 21.0 | 0.21 | 0.09 | 0.29 | 77 | 1006.8 |
| 20260506125103 | 52 | 68 | 12.0 | 21.0 | 0.20 | 0.09 | 0.28 | 79 | 1006.8 |
| 20260506124611 | 51 | 69 | 11.0 | 20.0 | 0.20 | 0.09 | 0.28 | 80 | 1006.7 |
| 20260506124116 | 51 | 86 | 11.0 | 20.0 | 0.19 | 0.10 | 0.26 | 79 | 1006.7 |
| 20260506123631 | 51 | 55 | 9.0 | 27.0 | 0.17 | 0.10 | 0.24 | 78 | 1006.7 |
| 20260506123241 | 51 | 116 | 11.0 | 27.0 | 0.11 | 0.10 | 0.17 | 81 | 1007.1 |
| 20260506122602 | 51 | 10 | 15.0 | 28.0 | 0.05 | 0.11 | 0.11 | 81 | 1007.0 |
| 20260506122103 | 52 | 323 | 11.0 | 28.0 | 0.02 | 0.11 | 0.09 | 81 | 1006.0 |
| 20260506121602 | 53 | 279 | 13.0 | 22.0 | 0.00 | 0.12 | 0.08 | 85 | 1005.9 |
| 20260506121104 | 54 | 327 | 8.0 | 15.0 | 0.00 | 0.13 | 0.08 | 85 | 1005.9 |
| 20260506120613 | 55 | 261 | 4.0 | 7.0 | 0.00 | 0.13 | 0.08 | 84 | 1005.6 |
| 20260506120347 | 55 | 285 | 2.0 | 4.0 | 0.00 | 0.13 | 0.08 | 84 | 1005.3 |
| 20260506115605 | 55 | 265 | 1.0 | 3.0 | 0.00 | 0.13 | 0.08 | 85 | 1005.4 |
| 20260506115102 | 55 | 262 | 1.0 | 2.0 | 0.00 | 0.13 | 0.08 | 84 | 1005.4 |
| 20260506114607 | 54 | 262 | 1.0 | 3.0 | 0.00 | 0.13 | 0.08 | 85 | 1005.3 |
| 20260506114353 | 54 | 262 | 1.0 | 5.0 | 0.00 | 0.13 | 0.08 | 84 | 1005.2 |
| 20260506113602 | 54 | 262 | 2.0 | 5.0 | 0.00 | 0.13 | 0.08 | 85 | 1005.2 |
| 20260506113351 | 54 | 248 | 2.0 | 9.0 | 0.00 | 0.13 | 0.08 | 86 | 1005.3 |
| 20260506112605 | 54 | 283 | 6.0 | 9.0 | 0.00 | 0.13 | 0.08 | 85 | 1005.3 |
| 20260506112105 | 54 | 307 | 3.0 | 6.0 | 0.00 | 0.13 | 0.08 | 84 | 1005.4 |
| 20260506111606 | 54 | 204 | 2.0 | 4.0 | 0.00 | 0.13 | 0.08 | 83 | 1005.4 |
| 20260506111105 | 54 | 204 | 2.0 | 4.0 | 0.00 | 0.14 | 0.08 | 84 | 1005.4 |
| 20260506110606 | 54 | 204 | 2.0 | 4.0 | 0.00 | 0.14 | 0.08 | 85 | 1005.6 |
| 20260506110105 | 53 | 243 | 3.0 | 4.0 | 0.00 | 0.14 | 0.08 | 85 | 1005.7 |
| 20260506105603 | 53 | 244 | 0.0 | 3.0 | 0.00 | 0.15 | 0.08 | 87 | 1006.0 |
| 20260506105104 | 53 | 244 | 2.0 | 3.0 | 0.00 | 0.15 | 0.08 | 87 | 1006.0 |
| 20260506104602 | 53 | 244 | 2.0 | 3.0 | 0.00 | 0.16 | 0.08 | 89 | 1006.2 |
| 20260506104413 | 52 | 244 | 1.0 | 2.0 | 0.00 | 0.17 | 0.08 | 88 | 1006.4 |
| 20260506103602 | 52 | 244 | 1.0 | 3.0 | 0.00 | 0.19 | 0.08 | 88 | 1006.5 |
| 20260506103435 | 52 | 244 | 0.0 | 3.0 | 0.00 | 0.20 | 0.08 | 88 | 1006.5 |
| 20260506102602 | 52 | 244 | 2.0 | 3.0 | 0.00 | 0.21 | 0.08 | 88 | 1006.5 |
| 20260506102102 | 52 | 244 | 2.0 | 5.0 | 0.00 | 0.22 | 0.08 | 88 | 1006.4 |
| 20260506101602 | 52 | 296 | 2.0 | 7.0 | 0.00 | 0.23 | 0.08 | 87 | 1006.6 |
| 20260506101352 | 53 | 288 | 4.0 | 7.0 | 0.00 | 0.24 | 0.08 | 87 | 1006.5 |
| 20260506100604 | 53 | 252 | 3.0 | 7.0 | 0.00 | 0.24 | 0.08 | 88 | 1006.4 |
| 20260506095848 | 53 | 289 | 3.0 | 6.0 | 0.00 | 0.24 | 0.08 | 85 | 1006.5 |
| 20260506095103 | 53 | 251 | 3.0 | 6.0 | 0.00 | 0.25 | 0.08 | 86 | 1006.5 |
| 20260506094603 | 53 | 285 | 2.0 | 4.0 | 0.00 | 0.25 | 0.08 | 83 | 1006.4 |
| 20260506094103 | 53 | 302 | 2.0 | 4.0 | 0.00 | 0.25 | 0.08 | 84 | 1006.4 |
| 20260506093610 | 53 | 231 | 1.0 | 3.0 | 0.00 | 0.25 | 0.08 | 82 | 1006.2 |
| 20260506093102 | 53 | 231 | 1.0 | 3.0 | 0.00 | 0.25 | 0.08 | 84 | 1006.2 |
| 20260506092602 | 53 | 231 | 2.0 | 3.0 | 0.00 | 0.25 | 0.08 | 84 | 1006.2 |
| 20260506092102 | 52 | 231 | 0.0 | 3.0 | 0.00 | 0.25 | 0.08 | 86 | 1006.2 |
| 20260506091602 | 52 | 288 | 2.0 | 3.0 | 0.00 | 0.25 | 0.08 | 85 | 1006.2 |
| 20260506091102 | 52 | 288 | 1.0 | 4.0 | 0.00 | 0.25 | 0.08 | 87 | 1006.2 |
| 20260506090603 | 52 | 288 | 1.0 | 4.0 | 0.00 | 0.25 | 0.08 | 87 | 1006.2 |
| 20260506085608 | 52 | 254 | 0.0 | 2.0 | 0.00 | 0.25 | 0.08 | 89 | 1006.5 |
| 20260506085102 | 51 | 254 | 0.0 | 3.0 | 0.00 | 0.25 | 0.08 | 88 | 1006.5 |
| 20260506084603 | 51 | 254 | 2.0 | 4.0 | 0.00 | 0.25 | 0.08 | 89 | 1006.5 |
| 20260506084102 | 51 | 252 | 2.0 | 4.0 | 0.00 | 0.25 | 0.08 | 90 | 1006.4 |
| 20260506083602 | 51 | 265 | 2.0 | 3.0 | 0.00 | 0.25 | 0.08 | 90 | 1006.4 |
| 20260506083102 | 51 | 262 | 1.0 | 3.0 | 0.00 | 0.25 | 0.08 | 90 | 1006.4 |
| 20260506082602 | 51 | 261 | 2.0 | 3.0 | 0.00 | 0.25 | 0.08 | 89 | 1006.4 |
| 20260506082349 | 51 | 261 | 0.0 | 3.0 | 0.00 | 0.26 | 0.08 | 90 | 1006.4 |
| 20260506081610 | 51 | 261 | 2.0 | 3.0 | 0.00 | 0.26 | 0.08 | 89 | 1006.6 |
| 20260506081106 | 51 | 289 | 0.0 | 2.0 | 0.00 | 0.26 | 0.08 | 89 | 1006.6 |
| 20260506080837 | 51 | 289 | 1.0 | 2.0 | 0.00 | 0.26 | 0.08 | 88 | 1006.5 |
| 20260506080103 | 51 | 289 | 0.0 | 2.0 | 0.00 | 0.26 | 0.08 | 89 | 1006.6 |
| 20260506073102 | 51 | 130 | 2.0 | 5.0 | 0.03 | 0.28 | 0.08 | 86 | 1006.4 |
| 20260506072602 | 51 | 106 | 4.0 | 5.0 | 0.04 | 0.28 | 0.08 | 86 | 1006.5 |
| 20260506072102 | 51 | 92 | 3.0 | 7.0 | 0.06 | 0.28 | 0.08 | 87 | 1006.4 |
| 20260506071602 | 50 | 85 | 4.0 | 7.0 | 0.06 | 0.28 | 0.08 | 88 | 1006.5 |